createdAt,value
2023-04-24T00:00:51.935Z,98961.09
2023-04-24T00:05:53.458Z,98949.72
2023-04-24T00:10:54.925Z,98950.94
2023-04-24T00:15:56.884Z,98945.78
2023-04-24T00:20:59.573Z,98943.78
2023-04-24T00:26:01.177Z,98931.50
2023-04-24T00:31:03.004Z,98938.28
2023-04-24T00:36:04.485Z,98926.44
2023-04-24T00:41:05.969Z,98918.44
2023-04-24T00:46:07.445Z,98922.59
2023-04-24T00:51:08.868Z,98909.31
2023-04-24T00:56:11.296Z,98907.97
2023-04-24T01:01:12.997Z,98887.09
2023-04-24T01:06:15.425Z,98902.25
2023-04-24T01:11:17.248Z,98907.09
2023-04-24T01:16:23.575Z,98909.75
2023-04-24T01:21:29.400Z,98906.47
2023-04-24T01:26:30.936Z,98894.94
2023-04-24T01:31:33.233Z,98896.16
2023-04-24T01:36:36.092Z,98905.28
2023-04-24T01:41:38.938Z,98910.84
2023-04-24T01:46:40.897Z,98902.56
2023-04-24T01:51:42.435Z,98904.88
2023-04-24T01:56:44.549Z,98889.19
2023-04-24T02:01:46.131Z,98895.00
2023-04-24T02:06:47.874Z,98885.19
2023-04-24T02:11:49.264Z,98885.84
2023-04-24T02:16:50.807Z,98896.88
2023-04-24T02:21:52.945Z,98892.38
2023-04-24T02:26:54.325Z,98868.88
2023-04-24T02:31:56.059Z,98887.22
2023-04-24T02:36:57.530Z,98882.28
2023-04-24T02:41:59.522Z,98879.44
2023-04-24T02:47:01.158Z,98880.47
2023-04-24T02:52:02.569Z,98905.66
2023-04-24T02:57:04.287Z,98882.34
2023-04-24T03:02:06.966Z,98908.72
2023-04-24T03:07:08.642Z,98907.84
2023-04-24T03:12:10.344Z,98897.34
2023-04-24T03:17:12.188Z,98912.72
2023-04-24T03:22:13.806Z,98913.34
2023-04-24T03:27:15.351Z,98906.38
2023-04-24T03:32:16.938Z,98916.19
2023-04-24T03:37:18.509Z,98911.72
2023-04-24T03:42:20.247Z,98930.72
2023-04-24T03:47:21.697Z,98925.22
2023-04-24T03:52:24.112Z,98940.41
2023-04-24T03:57:26.073Z,98937.06
2023-04-24T04:02:27.728Z,98953.22
2023-04-24T04:07:31.110Z,98952.06
2023-04-24T04:12:33.171Z,98968.44
2023-04-24T04:17:34.900Z,98953.91
2023-04-24T04:22:38.895Z,98962.41
2023-04-24T04:27:42.778Z,98969.09
2023-04-24T04:32:45.274Z,98967.75
2023-04-24T04:37:46.769Z,98962.75
2023-04-24T04:42:49.041Z,98991.59
2023-04-24T04:47:50.417Z,98991.78
2023-04-24T04:52:52.451Z,98994.09
2023-04-24T04:57:53.981Z,98999.75
2023-04-24T05:03:01.045Z,98992.75
2023-04-24T05:08:25.773Z,99008.44
2023-04-24T05:13:39.271Z,99009.56
2023-04-24T05:18:42.164Z,99023.69
2023-04-24T05:23:43.766Z,99026.16
2023-04-24T05:28:45.679Z,99021.31
2023-04-24T05:33:47.102Z,99051.28
2023-04-24T05:38:48.950Z,99046.13
2023-04-24T05:43:50.863Z,99057.84
2023-04-24T05:48:52.890Z,99076.81
2023-04-24T05:53:55.041Z,99091.84
2023-04-24T05:58:58.288Z,99085.56
2023-04-24T06:04:00.118Z,99070.06
2023-04-24T06:09:02.247Z,99088.44
2023-04-24T06:14:03.654Z,99088.78
2023-04-24T06:19:05.235Z,99099.78
2023-04-24T06:24:07.915Z,99093.78
2023-04-24T06:29:09.705Z,99069.47
2023-04-24T06:34:11.575Z,99127.66
2023-04-24T06:39:14.723Z,99118.00
2023-04-24T06:44:16.441Z,99140.22
2023-04-24T06:49:19.482Z,99131.34
2023-04-24T06:54:21.594Z,99127.50
2023-04-24T06:59:23.055Z,99123.28
2023-04-24T07:04:26.645Z,99137.34
2023-04-24T07:09:28.492Z,99119.59
2023-04-24T07:14:30.198Z,99117.81
2023-04-24T07:19:35.111Z,99110.19
2023-04-24T07:24:36.951Z,99113.53
2023-04-24T07:29:39.445Z,99117.22
2023-04-24T07:34:41.431Z,99122.25
2023-04-24T07:39:43.333Z,99111.91
2023-04-24T07:44:44.994Z,99106.75
2023-04-24T07:49:49.296Z,99128.25
2023-04-24T07:54:51.274Z,99122.25
2023-04-24T07:59:52.780Z,99114.25
2023-04-24T08:05:00.250Z,99151.66
2023-04-24T08:10:02.767Z,99111.22
2023-04-24T08:15:04.899Z,99128.28
2023-04-24T08:20:07.292Z,99137.47
2023-04-24T08:25:09.514Z,99140.63
2023-04-24T08:30:11.733Z,99145.31
2023-04-24T08:35:13.416Z,99151.00
2023-04-24T08:40:18.093Z,99166.53
2023-04-24T08:45:20.077Z,99167.31
2023-04-24T08:50:23.108Z,99174.00
2023-04-24T08:55:26.363Z,99185.78
2023-04-24T09:00:28.613Z,99174.88
2023-04-24T09:05:31.000Z,99186.38
2023-04-24T09:10:32.695Z,99190.03
2023-04-24T09:15:35.797Z,99199.03
2023-04-24T09:21:04.720Z,99200.56
2023-04-24T09:26:06.351Z,99192.72
2023-04-24T09:31:14.811Z,99204.22
2023-04-24T09:36:18.457Z,99221.41
2023-04-24T09:41:19.830Z,99239.19
2023-04-24T09:46:23.018Z,99226.66
2023-04-24T09:51:38.705Z,99239.00
2023-04-24T09:56:45.157Z,99236.31
2023-04-24T10:01:47.570Z,99215.94
2023-04-24T10:06:50.846Z,99242.53
2023-04-24T10:11:54.388Z,99248.91
2023-04-24T10:16:59.747Z,99244.94
2023-04-24T10:22:02.035Z,99271.75
2023-04-24T10:27:04.709Z,99271.25
2023-04-24T10:32:08.418Z,99266.00
2023-04-24T10:37:09.979Z,99275.03
2023-04-24T10:42:18.413Z,99306.38
2023-04-24T10:47:19.814Z,99303.25
2023-04-24T10:52:21.774Z,99315.56
2023-04-24T10:57:31.737Z,99313.03
2023-04-24T11:02:49.606Z,99313.44
2023-04-24T11:08:14.366Z,99315.44
2023-04-24T11:13:22.974Z,99314.44
2023-04-24T11:18:24.738Z,99317.38
2023-04-24T11:23:26.973Z,99294.69
2023-04-24T11:28:29.476Z,99295.66
2023-04-24T11:33:32.644Z,99293.63
2023-04-24T11:38:34.136Z,99301.03
2023-04-24T11:43:36.070Z,99312.88
2023-04-24T11:48:41.090Z,99307.81
2023-04-24T11:53:43.497Z,99302.16
2023-04-24T11:58:45.665Z,99320.22
2023-04-24T12:03:52.553Z,99333.22
2023-04-24T12:09:01.778Z,99328.50
2023-04-24T12:14:13.321Z,99339.94
2023-04-24T12:19:23.351Z,99343.44
2023-04-24T12:24:24.742Z,99359.56
2023-04-24T12:29:26.498Z,99365.09
2023-04-24T12:34:28.038Z,99375.41
2023-04-24T12:39:29.445Z,99367.75
2023-04-24T12:44:36.004Z,99369.97
2023-04-24T12:49:37.426Z,99359.28
2023-04-24T12:54:39.208Z,99355.50
2023-04-24T12:59:42.839Z,99361.78
2023-04-24T13:04:48.095Z,99346.53
2023-04-24T13:09:53.778Z,99354.31
2023-04-24T13:14:55.451Z,99347.63
2023-04-24T13:19:56.858Z,99360.84
2023-04-24T13:24:58.366Z,99335.84
2023-04-24T13:30:00.900Z,99333.84
2023-04-24T13:35:03.365Z,99359.91
2023-04-24T13:40:06.962Z,99369.22
2023-04-24T13:45:21.302Z,99375.44
2023-04-24T13:50:27.215Z,99385.31
2023-04-24T13:55:28.609Z,99385.31
2023-04-24T14:00:30.096Z,99392.59
2023-04-24T14:05:31.642Z,99390.97
2023-04-24T14:10:33.139Z,99389.59
2023-04-24T14:15:36.947Z,99391.72
2023-04-24T14:20:38.649Z,99367.53
2023-04-24T14:25:40.290Z,99374.28
2023-04-24T14:30:41.957Z,99390.69
2023-04-24T14:35:43.997Z,99369.69
2023-04-24T14:41:05.592Z,99379.28
2023-04-24T14:46:07.463Z,99373.16
2023-04-24T14:51:08.930Z,99373.06
2023-04-24T14:56:10.806Z,99387.28
2023-04-24T15:01:12.302Z,99381.28
2023-04-24T15:06:13.942Z,99388.28
2023-04-24T15:11:15.603Z,99384.44
2023-04-24T15:16:17.255Z,99380.78
2023-04-24T15:21:18.760Z,99385.28
2023-04-24T15:26:20.881Z,99397.19
2023-04-24T15:31:24.055Z,99391.66
2023-04-24T15:36:25.853Z,99378.13
2023-04-24T15:41:27.377Z,99390.66
2023-04-24T15:46:28.990Z,99385.47
2023-04-24T15:51:31.991Z,99405.72
2023-04-24T15:56:33.900Z,99408.72
2023-04-24T16:01:35.710Z,99413.44
2023-04-24T16:06:37.620Z,99397.88
2023-04-24T16:11:39.804Z,99397.38
2023-04-24T16:16:41.684Z,99411.25
2023-04-24T16:21:43.424Z,99407.72
2023-04-24T16:26:44.912Z,99424.78
2023-04-24T16:31:46.444Z,99411.09
2023-04-24T16:36:48.003Z,99416.13
2023-04-24T16:41:49.796Z,99416.28
2023-04-24T16:46:51.946Z,99403.53
2023-04-24T16:51:53.529Z,99421.31
2023-04-24T16:56:55.487Z,99421.78
2023-04-24T17:01:57.493Z,99412.09
2023-04-24T17:06:59.071Z,99415.44
2023-04-24T17:12:02.274Z,99424.81
2023-04-24T17:17:04.592Z,99419.13
2023-04-24T17:22:06.639Z,99417.41
2023-04-24T17:27:14.982Z,99426.81
2023-04-24T17:32:17.199Z,99423.09
2023-04-24T17:37:23.045Z,99432.00
2023-04-24T17:42:24.701Z,99426.44
2023-04-24T17:47:27.483Z,99421.75
2023-04-24T17:52:29.149Z,99431.63
2023-04-24T17:57:30.850Z,99429.78
2023-04-24T18:02:32.539Z,99429.44
2023-04-24T18:07:34.203Z,99435.47
2023-04-24T18:12:35.796Z,99446.19
2023-04-24T18:17:37.311Z,99425.53
2023-04-24T18:22:39.101Z,99457.63
2023-04-24T18:27:42.127Z,99466.47
2023-04-24T18:32:43.763Z,99471.28
2023-04-24T18:37:46.613Z,99476.59
2023-04-24T18:42:48.740Z,99478.22
2023-04-24T18:47:50.950Z,99489.28
2023-04-24T18:52:52.587Z,99492.78
2023-04-24T18:57:54.103Z,99503.47
2023-04-24T19:02:58.201Z,99507.44
2023-04-24T19:08:01.611Z,99494.72
2023-04-24T19:13:03.720Z,99517.91
2023-04-24T19:18:07.048Z,99523.63
2023-04-24T19:23:09.111Z,99539.03
2023-04-24T19:28:10.767Z,99530.56
2023-04-24T19:33:13.134Z,99537.44
2023-04-24T19:38:14.888Z,99531.28
2023-04-24T19:43:16.336Z,99537.88
2023-04-24T19:48:18.421Z,99533.19
2023-04-24T19:53:19.982Z,99534.56
2023-04-24T19:58:21.460Z,99539.03
2023-04-24T20:03:32.795Z,99538.22
2023-04-24T20:08:38.717Z,99548.94
2023-04-24T20:13:40.429Z,99550.84
2023-04-24T20:18:42.015Z,99545.56
2023-04-24T20:23:43.642Z,99542.94
2023-04-24T20:28:45.150Z,99530.59
2023-04-24T20:33:46.728Z,99526.06
2023-04-24T20:38:48.466Z,99541.63
2023-04-24T20:43:50.351Z,99525.09
2023-04-24T20:48:52.195Z,99528.28
2023-04-24T20:53:53.886Z,99523.25
2023-04-24T20:58:57.178Z,99529.44
2023-04-24T21:04:00.347Z,99531.97
2023-04-24T21:09:02.136Z,99522.38
2023-04-24T21:14:03.739Z,99524.75
2023-04-24T21:19:08.647Z,99528.44
2023-04-24T21:24:10.401Z,99517.75
2023-04-24T21:29:12.192Z,99512.50
2023-04-24T21:34:13.756Z,99509.97
2023-04-24T21:39:15.417Z,99509.75
2023-04-24T21:44:16.909Z,99508.66
2023-04-24T21:49:18.385Z,99515.97
2023-04-24T21:54:20.743Z,99508.53
2023-04-24T21:59:22.222Z,99500.84
2023-04-24T22:04:23.866Z,99509.75
2023-04-24T22:09:25.553Z,99495.59
2023-04-24T22:14:27.131Z,99497.91
2023-04-24T22:19:28.595Z,99488.22
2023-04-24T22:24:30.823Z,99489.63
2023-04-24T22:29:32.289Z,99495.06
2023-04-24T22:34:33.905Z,99502.63
2023-04-24T22:39:35.398Z,99500.44
2023-04-24T22:44:37.141Z,99504.63
2023-04-24T22:49:39.841Z,99502.91
2023-04-24T22:54:41.952Z,99498.25
2023-04-24T22:59:44.017Z,99499.78
2023-04-24T23:04:45.587Z,99498.41
2023-04-24T23:09:47.139Z,99495.06
2023-04-24T23:14:48.533Z,99500.75
2023-04-24T23:19:49.928Z,99494.94
2023-04-24T23:24:51.433Z,99465.44
2023-04-24T23:29:53.157Z,99502.09
2023-04-24T23:34:54.773Z,99497.22
2023-04-24T23:39:56.700Z,99483.78
2023-04-24T23:44:58.080Z,99477.88
2023-04-24T23:49:59.624Z,99469.91
2023-04-24T23:55:02.524Z,99467.81
